KDGW

Details ICAO KDGW
Name CONVERSE CO
Region United States
Timezone America/Denver (UTC-7.0)
Plans Departing 6
Arriving 7
Stats Elevation 4,932 ft / 1,503 m (AMSL)
Location 42.797743° -105.386598°
Runways 2
Magnetic Variation 8.699° E
Sunrise 2017-12-14 14:26:07 UTC / 2017-12-14 07:26:07 Local
Sunset 2017-12-14 23:29:25 UTC / 2017-12-14 16:29:25 Local
Advertisement - Login to hide

Runways

ID Width Length Bearing (true) Bearing (mag) Surface Threshold Offset Overrun Length
05 75 ft / 23 m 4,749 ft / 1,447 m 66.69° 57.99° Asphalt 0 ft / 0 m 0 ft / 0 m
11 98 ft / 30 m 6,739 ft / 2,054 m 117.89° 109.19° Asphalt 217 ft / 66 m 0 ft / 0 m
23 75 ft / 23 m 4,749 ft / 1,447 m 246.71° 238.01° Asphalt 0 ft / 0 m 0 ft / 0 m
29 98 ft / 30 m 6,739 ft / 2,054 m 297.91° 289.21° Asphalt 0 ft / 0 m 0 ft / 0 m

Map

Weather


0- 5 10 15 20 25 30 35+ Temperature / ° C

Clouds and Precipitation
Forecast for 2017-12-14 18:00 UTC. Updated 2 hours ago

Ground ~20,000 ft ~40,000 ft Winds

METAR

KDGW 141853Z AUTO 34019G30KT 10SM OVC047 01/M08 A3025 RMK AO2 PK WND 33032/1816 SLP270 T00061083

TAF

Not found

Frequencies

Recorded 135.22 MHz ASOS
Unicom 122.80 MHz CTAF/UNICOM
Warning: Do not use this data for real-world aviation or navigation. No guarantee of current accuracy is given.